createdAt,value
2023-11-28T00:00:23.792Z,56
2023-11-28T00:20:24.089Z,56
2023-11-28T00:40:22.371Z,56
2023-11-28T01:00:23.405Z,55
2023-11-28T01:20:22.165Z,56
2023-11-28T01:40:24.363Z,56
2023-11-28T02:00:23.504Z,55
2023-11-28T02:20:22.488Z,56
2023-11-28T02:40:21.518Z,55
2023-11-28T03:00:21.804Z,55
2023-11-28T03:20:23.335Z,55
2023-11-28T03:40:22.034Z,55
2023-11-28T04:00:22.365Z,55
2023-11-28T04:20:22.384Z,55
2023-11-28T04:40:21.972Z,56
2023-11-28T05:00:23.040Z,54
2023-11-28T05:20:22.084Z,55
2023-11-28T05:40:22.244Z,55
2023-11-28T06:00:25.648Z,57
2023-11-28T06:20:22.508Z,58
2023-11-28T06:40:21.880Z,60
2023-11-28T07:00:22.515Z,59
2023-11-28T07:20:40.927Z,59
2023-11-28T07:40:39.509Z,58
2023-11-28T08:00:40.322Z,58
2023-11-28T08:20:39.374Z,57
2023-11-28T08:40:39.256Z,56
2023-11-28T09:00:41.935Z,56
2023-11-28T09:20:40.888Z,56
2023-11-28T09:40:39.865Z,56
2023-11-28T10:00:39.692Z,56
2023-11-28T10:20:40.832Z,56
2023-11-28T10:40:43.758Z,56
2023-11-28T11:00:39.951Z,56
2023-11-28T11:20:39.380Z,55
2023-11-28T11:40:40.386Z,56
2023-11-28T12:00:38.760Z,57
2023-11-28T12:20:50.058Z,56
2023-11-28T12:40:39.686Z,56
2023-11-28T13:00:38.983Z,56
2023-11-28T13:20:40.796Z,56
2023-11-28T13:40:40.244Z,56
2023-11-28T14:00:39.245Z,57
2023-11-28T14:20:39.559Z,57
2023-11-28T14:40:39.985Z,56
2023-11-28T15:00:34.894Z,57
2023-11-28T15:20:44.045Z,56
2023-11-28T15:40:22.216Z,57
2023-11-28T16:00:23.224Z,57
2023-11-28T16:20:24.050Z,57
2023-11-28T16:40:22.588Z,57
2023-11-28T17:00:25.319Z,57
2023-11-28T17:20:23.055Z,57
2023-11-28T17:40:25.841Z,62
2023-11-28T18:00:29.076Z,60
2023-11-28T18:20:22.625Z,59
2023-11-28T18:40:22.729Z,60
2023-11-28T19:00:22.840Z,60
2023-11-28T19:20:23.766Z,60
2023-11-28T19:40:25.516Z,59
2023-11-28T20:00:27.256Z,59
2023-11-28T20:20:25.846Z,59
2023-11-28T20:40:27.272Z,58
2023-11-28T21:00:23.711Z,59
2023-11-28T21:20:23.807Z,59
2023-11-28T21:40:27.461Z,60
2023-11-28T22:00:26.233Z,60
2023-11-28T22:20:22.583Z,60
2023-11-28T22:40:22.729Z,59
2023-11-28T23:00:29.473Z,60
2023-11-28T23:20:25.211Z,60
2023-11-28T23:40:22.538Z,59
